createdAt,value
2018-09-24T09:31:08.756Z,1024.58
2018-09-24T09:32:08.732Z,1024.60
2018-09-24T09:33:08.710Z,1024.62
2018-09-24T09:34:08.702Z,1024.61
2018-09-24T09:35:08.702Z,1024.61
2018-09-24T09:36:08.663Z,1024.54
2018-09-24T09:37:08.624Z,1024.56
2018-09-24T09:38:08.630Z,1024.56
2018-09-24T09:39:08.600Z,1024.64
2018-09-24T09:40:08.563Z,1024.63
2018-09-24T09:41:08.621Z,1024.61
2018-09-24T09:42:08.546Z,1024.65
2018-09-24T09:43:08.550Z,1024.72
2018-09-24T09:44:08.553Z,1024.72
2018-09-24T09:45:08.544Z,1024.72
2018-09-24T09:46:08.542Z,1024.71
2018-09-24T09:47:08.530Z,1024.68
2018-09-24T09:48:08.510Z,1024.73
2018-09-24T09:49:08.415Z,1024.72
2018-09-24T09:50:08.384Z,1024.73
2018-09-24T09:51:08.377Z,1024.73
2018-09-24T09:52:08.349Z,1024.75
2018-09-24T09:53:08.345Z,1024.69
2018-09-24T09:54:08.311Z,1024.65
2018-09-24T09:55:08.290Z,1024.62
2018-09-24T09:56:08.285Z,1024.59
2018-09-24T09:57:08.266Z,1024.60
2018-09-24T09:58:08.247Z,1024.59
2018-09-24T09:59:08.250Z,1024.68
2018-09-24T10:00:08.207Z,1024.64
2018-09-24T10:01:08.186Z,1024.60
2018-09-24T10:02:08.192Z,1024.64
2018-09-24T10:03:08.154Z,1024.66
2018-09-24T10:04:08.142Z,1024.68
2018-09-24T10:05:08.113Z,1024.61
2018-09-24T10:06:08.097Z,1024.63
2018-09-24T10:07:08.104Z,1024.58
2018-09-24T10:08:08.076Z,1024.62
2018-09-24T10:09:08.050Z,1024.60
2018-09-24T10:10:08.034Z,1024.57
2018-09-24T10:11:08.025Z,1024.57
2018-09-24T10:12:08.006Z,1024.67
2018-09-24T10:13:07.997Z,1024.64
2018-09-24T10:14:07.962Z,1024.64
2018-09-24T10:15:07.949Z,1024.66
2018-09-24T10:16:07.948Z,1024.61
2018-09-24T10:17:07.926Z,1024.61
2018-09-24T10:18:07.894Z,1024.58
2018-09-24T10:19:07.875Z,1024.60
2018-09-24T10:20:07.863Z,1024.59
2018-09-24T10:21:07.840Z,1024.58
2018-09-24T10:22:07.848Z,1024.55
2018-09-24T10:23:07.834Z,1024.62
2018-09-24T10:24:07.790Z,1024.58
2018-09-24T10:25:07.816Z,1024.60
2018-09-24T10:26:07.829Z,1024.60
2018-09-24T10:27:07.826Z,1024.60
2018-09-24T10:28:07.781Z,1024.62
2018-09-24T10:29:07.784Z,1024.65
2018-09-24T10:30:07.754Z,1024.64
2018-09-24T10:31:07.679Z,1024.61
2018-09-24T10:32:07.662Z,1024.63
2018-09-24T10:33:07.638Z,1024.65
2018-09-24T10:34:07.621Z,1024.59
2018-09-24T10:35:07.597Z,1024.58
2018-09-24T10:36:07.584Z,1024.54
2018-09-24T10:37:07.594Z,1024.52
2018-09-24T10:38:07.559Z,1024.52
2018-09-24T10:39:07.528Z,1024.55
2018-09-24T10:40:07.525Z,1024.60
2018-09-24T10:41:07.496Z,1024.61
2018-09-24T10:42:07.489Z,1024.56
2018-09-24T10:43:07.474Z,1024.57
2018-09-24T10:44:07.450Z,1024.59
2018-09-24T10:45:07.440Z,1024.55
2018-09-24T10:46:07.491Z,1024.58
2018-09-24T10:47:07.410Z,1024.54
2018-09-24T10:48:07.404Z,1024.60
2018-09-24T10:49:07.386Z,1024.57
2018-09-24T10:50:07.382Z,1024.57
2018-09-24T10:51:07.339Z,1024.53
2018-09-24T10:52:07.324Z,1024.54
2018-09-24T10:53:07.392Z,1024.61
2018-09-24T10:54:07.278Z,1024.60
2018-09-24T10:55:07.270Z,1024.61
2018-09-24T10:56:07.263Z,1024.63
2018-09-24T10:57:07.248Z,1024.60
2018-09-24T10:58:07.229Z,1024.62
2018-09-24T10:59:07.205Z,1024.59
2018-09-24T11:00:07.190Z,1024.60
2018-09-24T11:01:07.175Z,1024.60
2018-09-24T11:02:07.165Z,1024.66
2018-09-24T11:03:07.163Z,1024.63
2018-09-24T11:04:07.112Z,1024.68
2018-09-24T11:05:07.139Z,1024.65
2018-09-24T11:06:07.085Z,1024.67
2018-09-24T11:07:07.072Z,1024.74
2018-09-24T11:08:07.069Z,1024.68
2018-09-24T11:09:07.039Z,1024.67
2018-09-24T11:10:07.094Z,1024.67
2018-09-24T11:11:07.049Z,1024.65
2018-09-24T11:12:07.046Z,1024.59
2018-09-24T11:13:07.079Z,1024.66
2018-09-24T11:14:07.019Z,1024.65
2018-09-24T11:15:07.005Z,1024.61
2018-09-24T11:16:07.097Z,1024.63
2018-09-24T11:17:07.186Z,1024.66
2018-09-24T11:18:06.920Z,1024.70
2018-09-24T11:19:06.883Z,1024.66
2018-09-24T11:20:06.855Z,1024.66
2018-09-24T11:21:06.836Z,1024.68
2018-09-24T11:22:06.868Z,1024.62
2018-09-24T11:23:06.801Z,1024.69
2018-09-24T11:24:06.815Z,1024.76
2018-09-24T11:25:06.786Z,1024.74
2018-09-24T11:26:06.797Z,1024.80
2018-09-24T11:27:06.748Z,1024.70
2018-09-24T11:28:06.728Z,1024.73
2018-09-24T11:29:06.722Z,1024.72
2018-09-24T11:30:06.700Z,1024.71
2018-09-24T11:31:06.674Z,1024.69
2018-09-24T11:32:06.658Z,1024.75
2018-09-24T11:33:06.689Z,1024.75
2018-09-24T11:34:06.643Z,1024.75
2018-09-24T11:35:06.605Z,1024.80
2018-09-24T11:36:06.608Z,1024.72
2018-09-24T11:37:06.586Z,1024.73
2018-09-24T11:38:06.561Z,1024.73
2018-09-24T11:39:06.571Z,1024.78
2018-09-24T11:40:06.541Z,1024.75
2018-09-24T11:41:06.515Z,1024.86
2018-09-24T11:42:06.516Z,1024.82
2018-09-24T11:43:06.488Z,1024.77
2018-09-24T11:44:06.480Z,1024.76
2018-09-24T11:45:06.451Z,1024.71
2018-09-24T11:46:06.450Z,1024.71
2018-09-24T11:47:06.572Z,1024.63
2018-09-24T11:48:06.421Z,1024.57
2018-09-24T11:49:06.402Z,1024.57
2018-09-24T11:50:06.372Z,1024.58
2018-09-24T11:51:06.359Z,1024.56
2018-09-24T11:52:06.341Z,1024.57
2018-09-24T11:53:06.323Z,1024.58
2018-09-24T11:54:06.340Z,1024.58
2018-09-24T11:55:06.289Z,1024.61
2018-09-24T11:56:06.272Z,1024.61
2018-09-24T11:57:06.303Z,1024.65
2018-09-24T11:58:06.292Z,1024.66
2018-09-24T11:59:06.307Z,1024.67
2018-09-24T12:00:06.320Z,1024.64
2018-09-24T12:01:06.255Z,1024.65
2018-09-24T12:02:06.308Z,1024.58
2018-09-24T12:03:06.145Z,1024.58
2018-09-24T12:04:06.146Z,1024.59
2018-09-24T12:05:06.137Z,1024.61
2018-09-24T12:06:06.114Z,1024.60
2018-09-24T12:07:06.089Z,1024.58
2018-09-24T12:08:06.086Z,1024.64
2018-09-24T12:09:06.076Z,1024.67
2018-09-24T12:10:06.102Z,1024.62
2018-09-24T12:11:06.020Z,1024.65
2018-09-24T12:12:06.038Z,1024.70
2018-09-24T12:13:05.998Z,1024.70
2018-09-24T12:14:05.972Z,1024.77
2018-09-24T12:15:05.971Z,1024.83
2018-09-24T12:16:05.936Z,1024.91
2018-09-24T12:17:05.920Z,1024.92
2018-09-24T12:18:05.954Z,1024.88
2018-09-24T12:19:05.890Z,1024.89
2018-09-24T12:20:05.891Z,1024.85
2018-09-24T12:21:05.860Z,1024.84
2018-09-24T12:22:05.842Z,1024.82
2018-09-24T12:23:05.822Z,1024.87
2018-09-24T12:24:05.837Z,1024.69
2018-09-24T12:25:05.804Z,1024.68
2018-09-24T12:26:05.787Z,1024.66
2018-09-24T12:27:05.767Z,1024.74
2018-09-24T12:28:05.748Z,1024.66
2018-09-24T12:29:05.755Z,1024.67
2018-09-24T12:30:05.749Z,1024.63
2018-09-24T12:31:05.709Z,1024.56
2018-09-24T12:32:05.679Z,1024.63
2018-09-24T12:33:05.676Z,1024.62
2018-09-24T12:34:05.676Z,1024.67
2018-09-24T12:35:05.638Z,1024.66
2018-09-24T12:36:05.633Z,1024.64
2018-09-24T12:37:05.601Z,1024.64
2018-09-24T12:38:05.586Z,1024.61
2018-09-24T12:39:05.580Z,1024.57
2018-09-24T12:40:05.560Z,1024.63
2018-09-24T12:41:05.567Z,1024.58
2018-09-24T12:42:05.543Z,1024.64
2018-09-24T12:43:05.566Z,1024.61
2018-09-24T12:44:05.579Z,1024.58
2018-09-24T12:45:05.532Z,1024.57
2018-09-24T12:46:05.533Z,1024.59
2018-09-24T12:47:05.519Z,1024.57
2018-09-24T12:48:05.491Z,1024.57
2018-09-24T12:49:05.409Z,1024.55
2018-09-24T12:50:05.398Z,1024.54
2018-09-24T12:51:05.404Z,1024.52
2018-09-24T12:52:05.373Z,1024.51
2018-09-24T12:53:05.345Z,1024.47
2018-09-24T12:54:05.326Z,1024.55
2018-09-24T12:55:05.312Z,1024.59
2018-09-24T12:56:05.313Z,1024.49
2018-09-24T12:57:05.280Z,1024.56
2018-09-24T12:58:05.268Z,1024.47
2018-09-24T12:59:05.242Z,1024.53
2018-09-24T13:00:05.232Z,1024.55
2018-09-24T13:01:05.237Z,1024.53
2018-09-24T13:02:05.215Z,1024.50
2018-09-24T13:03:05.189Z,1024.55
2018-09-24T13:04:05.177Z,1024.54
2018-09-24T13:05:05.165Z,1024.58
2018-09-24T13:06:05.148Z,1024.54
2018-09-24T13:07:05.137Z,1024.54
2018-09-24T13:08:05.143Z,1024.54
2018-09-24T13:09:05.107Z,1024.54
2018-09-24T13:10:05.076Z,1024.47
2018-09-24T13:11:05.090Z,1024.41
2018-09-24T13:12:05.050Z,1024.44
2018-09-24T13:13:05.041Z,1024.49
2018-09-24T13:14:05.034Z,1024.47
2018-09-24T13:15:05.021Z,1024.45
2018-09-24T13:16:05.002Z,1024.43
2018-09-24T13:17:04.984Z,1024.47
2018-09-24T13:18:04.963Z,1024.48
2018-09-24T13:19:05.023Z,1024.53
2018-09-24T13:20:04.944Z,1024.57
2018-09-24T13:21:04.924Z,1024.53
2018-09-24T13:22:04.922Z,1024.55
2018-09-24T13:23:04.911Z,1024.45
2018-09-24T13:24:04.898Z,1024.49
2018-09-24T13:25:04.878Z,1024.47
2018-09-24T13:26:04.879Z,1024.36
2018-09-24T13:27:04.874Z,1024.38
2018-09-24T13:28:04.829Z,1024.46
2018-09-24T13:29:04.824Z,1024.47
2018-09-24T13:30:04.808Z,1024.48
2018-09-24T13:31:04.800Z,1024.51
2018-09-24T13:32:04.835Z,1024.47
2018-09-24T13:33:04.820Z,1024.48
2018-09-24T13:34:04.816Z,1024.39
2018-09-24T13:35:04.793Z,1024.44
2018-09-24T13:36:04.789Z,1024.46
2018-09-24T13:37:04.778Z,1024.52
2018-09-24T13:38:04.776Z,1024.39
2018-09-24T13:39:04.702Z,1024.32
2018-09-24T13:40:04.697Z,1024.41
2018-09-24T13:41:04.670Z,1024.38
2018-09-24T13:42:04.672Z,1024.43
2018-09-24T13:43:04.653Z,1024.36
2018-09-24T13:44:04.631Z,1024.45
2018-09-24T13:45:04.616Z,1024.47
2018-09-24T13:46:04.609Z,1024.49
2018-09-24T13:47:04.616Z,1024.45
2018-09-24T13:48:04.585Z,1024.49
2018-09-24T13:49:04.569Z,1024.68
2018-09-24T13:50:04.558Z,1024.27
2018-09-24T13:51:04.543Z,1024.28
2018-09-24T13:52:04.534Z,1024.34
2018-09-24T13:53:04.531Z,1024.30
2018-09-24T13:54:04.509Z,1024.30
2018-09-24T13:55:04.499Z,1024.20
2018-09-24T13:56:04.484Z,1024.28
2018-09-24T13:57:04.476Z,1024.29
2018-09-24T13:58:04.470Z,1024.21
2018-09-24T13:59:04.445Z,1024.27
2018-09-24T14:00:04.438Z,1024.27
2018-09-24T14:01:04.420Z,1024.27
2018-09-24T14:02:04.411Z,1024.31
2018-09-24T14:03:04.404Z,1024.31
2018-09-24T14:04:04.385Z,1024.34
2018-09-24T14:05:04.395Z,1024.33
2018-09-24T14:06:04.353Z,1024.39
2018-09-24T14:07:04.347Z,1024.35
2018-09-24T14:08:04.338Z,1024.35
2018-09-24T14:09:04.310Z,1024.39
2018-09-24T14:10:04.297Z,1024.38
2018-09-24T14:11:04.287Z,1024.44
2018-09-24T14:12:04.275Z,1024.45
2018-09-24T14:13:04.267Z,1024.47
2018-09-24T14:14:04.235Z,1024.49
2018-09-24T14:15:04.219Z,1024.49
2018-09-24T14:16:04.202Z,1024.48
2018-09-24T14:17:04.186Z,1024.52
2018-09-24T14:18:04.194Z,1024.55
2018-09-24T14:19:04.173Z,1024.57
2018-09-24T14:20:04.143Z,1024.56
2018-09-24T14:21:04.144Z,1024.56
2018-09-24T14:22:04.109Z,1024.54
2018-09-24T14:23:04.099Z,1024.53
2018-09-24T14:24:04.089Z,1024.59
2018-09-24T14:25:04.094Z,1024.55
2018-09-24T14:26:04.097Z,1024.56
2018-09-24T14:27:04.087Z,1024.58
2018-09-24T14:28:04.068Z,1024.55
2018-09-24T14:29:04.054Z,1024.55
2018-09-24T14:30:03.970Z,1024.59
2018-09-24T14:31:03.952Z,1024.59
2018-09-24T14:32:03.936Z,1024.53
2018-09-24T14:33:03.931Z,1024.53
2018-09-24T14:34:03.925Z,1024.53
2018-09-24T14:35:03.887Z,1024.51
2018-09-24T14:36:03.870Z,1024.54
2018-09-24T14:37:03.856Z,1024.55
2018-09-24T14:38:03.838Z,1024.53
2018-09-24T14:39:03.830Z,1024.53
2018-09-24T14:40:03.807Z,1024.54
2018-09-24T14:41:03.784Z,1024.53
2018-09-24T14:42:03.769Z,1024.57
2018-09-24T14:43:03.753Z,1024.58
2018-09-24T14:44:03.747Z,1024.72
2018-09-24T14:45:03.717Z,1024.57
2018-09-24T14:46:03.699Z,1024.53
2018-09-24T14:47:03.688Z,1024.54
2018-09-24T14:48:03.665Z,1024.50
2018-09-24T14:49:03.659Z,1024.52
2018-09-24T14:50:03.631Z,1024.52
2018-09-24T14:51:03.615Z,1024.53
2018-09-24T14:52:03.601Z,1024.56
2018-09-24T14:53:03.583Z,1024.52
2018-09-24T14:54:03.574Z,1024.56
2018-09-24T14:55:03.549Z,1024.60
2018-09-24T14:56:03.531Z,1024.61
2018-09-24T14:57:03.513Z,1024.61
2018-09-24T14:58:03.497Z,1024.58
2018-09-24T14:59:03.497Z,1024.61
2018-09-24T15:00:03.472Z,1024.60
2018-09-24T15:01:03.445Z,1024.62
2018-09-24T15:02:03.430Z,1024.64
2018-09-24T15:03:03.412Z,1024.56
2018-09-24T15:04:03.397Z,1024.64
2018-09-24T15:05:03.386Z,1024.60
2018-09-24T15:06:03.362Z,1024.63
2018-09-24T15:07:03.345Z,1024.58
2018-09-24T15:08:03.329Z,1024.59
2018-09-24T15:09:03.331Z,1024.55
2018-09-24T15:10:03.353Z,1024.55
2018-09-24T15:11:03.339Z,1024.58
2018-09-24T15:12:03.331Z,1024.58
2018-09-24T15:13:03.308Z,1024.53
2018-09-24T15:14:03.286Z,1024.53
2018-09-24T15:15:03.292Z,1024.48
2018-09-24T15:16:03.196Z,1024.50
2018-09-24T15:17:03.178Z,1024.47
2018-09-24T15:18:03.159Z,1024.51
2018-09-24T15:19:03.144Z,1024.49
2018-09-24T15:20:03.136Z,1024.50
2018-09-24T15:21:03.113Z,1024.52
2018-09-24T15:22:03.100Z,1024.50
2018-09-24T15:23:03.077Z,1024.51
2018-09-24T15:24:03.060Z,1024.47
2018-09-24T15:25:03.049Z,1024.50
2018-09-24T15:26:03.028Z,1024.51
2018-09-24T15:27:03.009Z,1024.49
2018-09-24T15:28:02.993Z,1024.49
2018-09-24T15:29:03.012Z,1024.50
2018-09-24T15:30:02.965Z,1024.44
2018-09-24T15:31:02.938Z,1024.48
2018-09-24T15:32:02.925Z,1024.49
2018-09-24T15:33:02.905Z,1024.46
2018-09-24T15:34:02.890Z,1024.41
2018-09-24T15:35:02.882Z,1024.44
2018-09-24T15:36:02.857Z,1024.48
2018-09-24T15:37:02.839Z,1024.42
2018-09-24T15:38:02.823Z,1024.46
2018-09-24T15:39:02.807Z,1024.42
2018-09-24T15:40:02.804Z,1024.47
2018-09-24T15:41:02.791Z,1024.47
2018-09-24T15:42:02.753Z,1024.48
2018-09-24T15:43:02.733Z,1024.59
2018-09-24T15:44:02.718Z,1024.55
2018-09-24T15:45:02.711Z,1024.56
2018-09-24T15:46:02.750Z,1024.60
2018-09-24T15:47:02.667Z,1024.52
2018-09-24T15:48:02.648Z,1024.55
2018-09-24T15:49:02.631Z,1024.56
2018-09-24T15:50:02.612Z,1024.56
2018-09-24T15:51:02.605Z,1024.56
2018-09-24T15:52:02.580Z,1024.57
2018-09-24T15:53:02.564Z,1024.53
2018-09-24T15:54:02.543Z,1024.53
2018-09-24T15:55:02.547Z,1024.46
2018-09-24T15:56:02.575Z,1024.52
2018-09-24T15:57:02.561Z,1024.52
2018-09-24T15:58:02.534Z,1024.50
2018-09-24T15:59:02.517Z,1024.56
2018-09-24T16:00:02.510Z,1024.52
2018-09-24T16:01:02.435Z,1024.48
2018-09-24T16:02:02.404Z,1024.51
2018-09-24T16:03:02.389Z,1024.49
2018-09-24T16:04:02.369Z,1024.48
2018-09-24T16:05:02.352Z,1024.46
2018-09-24T16:06:02.343Z,1024.49
2018-09-24T16:07:02.316Z,1024.47
2018-09-24T16:08:02.299Z,1024.48
2018-09-24T16:09:02.310Z,1024.44
2018-09-24T16:10:02.266Z,1024.44
2018-09-24T16:11:02.257Z,1024.44
2018-09-24T16:12:02.229Z,1024.46
2018-09-24T16:13:02.211Z,1024.50
2018-09-24T16:14:02.193Z,1024.45
2018-09-24T16:15:02.177Z,1024.45
2018-09-24T16:16:02.169Z,1024.47
2018-09-24T16:17:02.139Z,1024.46
2018-09-24T16:18:02.123Z,1024.48
2018-09-24T16:19:02.108Z,1024.46
2018-09-24T16:20:02.090Z,1024.49
2018-09-24T16:21:02.148Z,1024.50
2018-09-24T16:22:02.052Z,1024.48
2018-09-24T16:23:02.035Z,1024.49
2018-09-24T16:24:02.018Z,1024.55
2018-09-24T16:25:02.001Z,1024.58
2018-09-24T16:26:01.983Z,1024.53
2018-09-24T16:27:01.980Z,1024.65
2018-09-24T16:28:01.951Z,1024.49
2018-09-24T16:29:01.936Z,1024.59
2018-09-24T16:30:01.913Z,1024.59
2018-09-24T16:31:01.894Z,1024.58
2018-09-24T16:32:01.885Z,1024.60
2018-09-24T16:33:01.861Z,1024.60
2018-09-24T16:34:01.843Z,1024.59
2018-09-24T16:35:01.823Z,1024.63
2018-09-24T16:36:01.808Z,1024.65
2018-09-24T16:37:01.801Z,1024.68
2018-09-24T16:38:01.769Z,1024.68
2018-09-24T16:39:01.757Z,1024.67
2018-09-24T16:40:01.763Z,1024.65
2018-09-24T16:41:01.759Z,1024.68
2018-09-24T16:42:01.772Z,1024.64
2018-09-24T16:43:01.734Z,1024.66
2018-09-24T16:44:01.711Z,1024.65
2018-09-24T16:45:01.711Z,1024.66
2018-09-24T16:46:01.628Z,1024.68
2018-09-24T16:47:01.624Z,1024.74
2018-09-24T16:48:01.593Z,1024.75
2018-09-24T16:49:01.577Z,1024.73
2018-09-24T16:50:01.554Z,1024.77
2018-09-24T16:51:01.538Z,1024.77
2018-09-24T16:52:01.531Z,1024.74
2018-09-24T16:53:01.507Z,1024.74
2018-09-24T16:54:01.484Z,1024.74
2018-09-24T16:55:01.467Z,1024.74
2018-09-24T16:56:01.449Z,1024.74
2018-09-24T16:57:01.438Z,1024.77
2018-09-24T16:58:01.522Z,1024.81
2018-09-24T16:59:01.399Z,1024.83
2018-09-24T17:00:01.375Z,1024.82
2018-09-24T17:01:01.359Z,1024.87
2018-09-24T17:02:01.373Z,1024.88
2018-09-24T17:03:01.322Z,1024.88
2018-09-24T17:04:01.305Z,1024.91
2018-09-24T17:05:01.289Z,1024.92
2018-09-24T17:06:01.266Z,1024.91
2018-09-24T17:07:01.252Z,1024.92
2018-09-24T17:08:01.241Z,1024.95
2018-09-24T17:09:01.214Z,1024.98
2018-09-24T17:10:01.196Z,1025.01
2018-09-24T17:11:01.175Z,1025.00
2018-09-24T17:12:01.205Z,1025.04
2018-09-24T17:13:01.149Z,1025.01
2018-09-24T17:14:01.122Z,1025.02
2018-09-24T17:15:01.115Z,1025.06
2018-09-24T17:16:01.089Z,1025.11
2018-09-24T17:17:01.073Z,1025.08
2018-09-24T17:18:01.057Z,1025.10
2018-09-24T17:19:01.031Z,1025.08
2018-09-24T17:20:01.022Z,1025.07
2018-09-24T17:21:00.997Z,1025.08
2018-09-24T17:22:00.998Z,1025.12
2018-09-24T17:23:01.023Z,1025.11
2018-09-24T17:24:01.009Z,1025.08
2018-09-24T17:25:00.980Z,1025.11
2018-09-24T17:26:00.958Z,1025.16
2018-09-24T17:27:00.886Z,1025.12
2018-09-24T17:28:00.874Z,1025.13
2018-09-24T17:29:00.849Z,1025.18
2018-09-24T17:30:00.830Z,1025.13
2018-09-24T17:31:00.806Z,1025.18
2018-09-24T17:32:00.792Z,1025.20
2018-09-24T17:33:00.789Z,1025.21
2018-09-24T17:34:00.756Z,1025.21
2018-09-24T17:35:00.777Z,1025.23
2018-09-24T17:36:00.723Z,1025.24
2018-09-24T17:37:00.703Z,1025.25
2018-09-24T17:38:00.684Z,1025.26
2018-09-24T17:39:00.674Z,1025.28
2018-09-24T17:40:00.646Z,1025.30
2018-09-24T17:41:00.627Z,1025.28
2018-09-24T17:42:00.609Z,1025.33
2018-09-24T17:43:00.591Z,1025.30
2018-09-24T17:44:00.583Z,1025.34
2018-09-24T17:45:00.552Z,1025.31
2018-09-24T17:46:00.592Z,1025.35
2018-09-24T17:47:00.516Z,1025.34
2018-09-24T17:48:00.497Z,1025.38
2018-09-24T17:49:00.487Z,1025.41
2018-09-24T17:50:00.460Z,1025.39
2018-09-24T17:51:00.441Z,1025.42
2018-09-24T17:52:00.421Z,1025.41
2018-09-24T17:53:00.439Z,1025.43
2018-09-24T17:54:00.398Z,1025.45
2018-09-24T17:55:00.364Z,1025.41
2018-09-24T17:56:00.347Z,1025.41
2018-09-24T17:57:00.328Z,1025.42
2018-09-24T17:58:00.307Z,1025.49
2018-09-24T17:59:00.302Z,1025.50
2018-09-24T18:00:00.330Z,1025.51
2018-09-24T18:01:00.253Z,1025.50
2018-09-24T18:02:00.234Z,1025.52
2018-09-24T18:03:00.216Z,1025.52
2018-09-24T18:04:00.207Z,1025.55
2018-09-24T18:05:00.192Z,1025.57
2018-09-24T18:06:00.241Z,1025.57
2018-09-24T18:07:00.201Z,1025.59
2018-09-24T18:08:00.171Z,1025.59
2018-09-24T18:09:00.156Z,1025.62
2018-09-24T18:10:00.080Z,1025.62
2018-09-24T18:11:00.063Z,1025.61
2018-09-24T18:12:00.104Z,1025.66
2018-09-24T18:13:00.023Z,1025.68
2018-09-24T18:14:00.021Z,1025.70
2018-09-24T18:14:59.986Z,1025.61
2018-09-24T18:15:59.966Z,1025.69
2018-09-24T18:16:59.948Z,1025.71
2018-09-24T18:17:59.928Z,1025.72
2018-09-24T18:18:59.916Z,1025.72
2018-09-24T18:19:59.907Z,1025.75
2018-09-24T18:20:59.874Z,1025.77
2018-09-24T18:21:59.857Z,1025.83
2018-09-24T18:22:59.835Z,1025.83
2018-09-24T18:23:59.826Z,1025.88
2018-09-24T18:24:59.798Z,1025.83
2018-09-24T18:25:59.779Z,1025.85
2018-09-24T18:26:59.777Z,1025.88
2018-09-24T18:27:59.740Z,1025.91
2018-09-24T18:28:59.723Z,1025.87
2018-09-24T18:29:59.709Z,1025.91
2018-09-24T18:30:59.680Z,1025.94
2018-09-24T18:31:59.665Z,1025.98
2018-09-24T18:32:59.644Z,1025.97
2018-09-24T18:33:59.626Z,1025.95
2018-09-24T18:34:59.614Z,1025.96
2018-09-24T18:35:59.589Z,1025.97
2018-09-24T18:36:59.571Z,1026.01
2018-09-24T18:37:59.556Z,1026.07
2018-09-24T18:38:59.529Z,1026.04
2018-09-24T18:39:59.520Z,1026.04
2018-09-24T18:40:59.510Z,1026.01
2018-09-24T18:41:59.471Z,1026.04
2018-09-24T18:42:59.553Z,1026.04
2018-09-24T18:43:59.432Z,1026.06
2018-09-24T18:44:59.457Z,1026.14
2018-09-24T18:45:59.444Z,1026.12
2018-09-24T18:46:59.444Z,1026.13
2018-09-24T18:47:59.421Z,1026.16
2018-09-24T18:48:59.388Z,1026.18
2018-09-24T18:49:59.460Z,1026.19
2018-09-24T18:50:59.299Z,1026.20
2018-09-24T18:51:59.280Z,1026.19
2018-09-24T18:52:59.265Z,1026.19
2018-09-24T18:53:59.241Z,1026.22
2018-09-24T18:54:59.225Z,1026.24
2018-09-24T18:55:59.201Z,1026.24
2018-09-24T18:56:59.182Z,1026.23
2018-09-24T18:57:59.169Z,1026.25
2018-09-24T18:58:59.146Z,1026.24
2018-09-24T18:59:59.137Z,1026.26
2018-09-24T19:00:59.132Z,1026.34
2018-09-24T19:01:59.089Z,1026.34
2018-09-24T19:02:59.064Z,1026.33
2018-09-24T19:03:59.089Z,1026.35
2018-09-24T19:04:59.028Z,1026.37
2018-09-24T19:05:59.017Z,1026.39
2018-09-24T19:06:58.983Z,1026.40
2018-09-24T19:07:58.969Z,1026.40
2018-09-24T19:08:58.952Z,1026.47
2018-09-24T19:09:58.931Z,1026.46
2018-09-24T19:10:58.917Z,1026.48
2018-09-24T19:11:58.892Z,1026.50
2018-09-24T19:12:58.876Z,1026.50
2018-09-24T19:13:58.852Z,1026.52
2018-09-24T19:14:58.832Z,1026.48
2018-09-24T19:15:58.822Z,1026.50
2018-09-24T19:16:58.794Z,1026.54
2018-09-24T19:17:58.774Z,1026.55
2018-09-24T19:18:58.761Z,1026.55
2018-09-24T19:19:58.733Z,1026.59
2018-09-24T19:20:58.723Z,1026.57
2018-09-24T19:21:58.691Z,1026.61
2018-09-24T19:22:58.679Z,1026.58
2018-09-24T19:23:58.654Z,1026.61
2018-09-24T19:25:10.016Z,1026.64
2018-09-24T19:25:58.645Z,1026.66
2018-09-24T19:26:58.633Z,1026.62
2018-09-24T19:27:58.669Z,1026.67
2018-09-24T19:28:58.618Z,1026.68
2018-09-24T19:29:58.593Z,1026.68
2018-09-24T19:30:58.601Z,1026.70
2018-09-24T19:31:58.497Z,1026.71
2018-09-24T19:32:58.475Z,1026.75
2018-09-24T19:33:58.463Z,1026.77
2018-09-24T19:34:58.435Z,1026.81
2018-09-24T19:35:58.419Z,1026.83
2018-09-24T19:36:58.497Z,1026.86
2018-09-24T19:37:58.375Z,1026.83
2018-09-24T19:38:58.359Z,1026.84
2018-09-24T19:39:58.331Z,1026.86
2018-09-24T19:40:58.330Z,1026.84
2018-09-24T19:41:58.292Z,1026.84
2018-09-24T19:42:58.277Z,1026.84
2018-09-24T19:43:58.254Z,1026.87
2018-09-24T19:44:58.236Z,1026.83
2018-09-24T19:45:58.213Z,1026.81
2018-09-24T19:46:58.205Z,1026.81
2018-09-24T19:47:58.174Z,1026.85
2018-09-24T19:48:58.152Z,1026.87
2018-09-24T19:49:58.135Z,1026.86
2018-09-24T19:50:58.121Z,1026.85
2018-09-24T19:51:58.093Z,1026.84
2018-09-24T19:52:58.073Z,1026.86
2018-09-24T19:53:58.051Z,1026.86
2018-09-24T19:54:58.041Z,1026.86
2018-09-24T19:55:58.044Z,1026.88
2018-09-24T19:56:57.990Z,1026.87
2018-09-24T19:57:57.989Z,1026.87
2018-09-24T19:58:57.950Z,1026.85
2018-09-24T19:59:57.929Z,1026.85
2018-09-24T20:00:57.908Z,1026.83
2018-09-24T20:01:57.975Z,1026.82
2018-09-24T20:02:57.870Z,1026.83
2018-09-24T20:03:57.848Z,1026.82
2018-09-24T20:04:57.845Z,1026.81
2018-09-24T20:05:57.848Z,1026.82
2018-09-24T20:06:57.860Z,1026.84
2018-09-24T20:07:57.825Z,1026.89
2018-09-24T20:08:57.794Z,1026.80
2018-09-24T20:09:57.798Z,1026.86
2018-09-24T20:10:57.705Z,1026.86
2018-09-24T20:11:57.693Z,1026.83
2018-09-24T20:12:57.665Z,1026.81
2018-09-24T20:13:57.665Z,1026.88
2018-09-24T20:14:57.625Z,1026.85
2018-09-24T20:15:57.602Z,1026.87
